x

Matinicus Rock, Me (mism1) Weather Station

6:00 - Mon 20th Feb 2017 All times are EST. -5 hours from GMT.

  • Wind
    20mph, 21mph gusts
  • Air Temp 39°f
  • Sea Pressure 1023mb
  • Matinicus Rock, Me
  • Matinicus Rock, Me

More Historic Weather Station data

Upgrade to MSW Pro to gain access to the past 30 days of data for over 8000 Wavebouys and Weather Stations around the globe.

Join Pro

Comparision Forecast

View Surf forecast
   
lun. 02/20 6:00 20 21 mph 1023mb 39f
5:00 17 20 mph 1022.1mb 39f
4:00 17 20 mph 1021.2mb 39f
3:00 18 21 mph 1020mb 38f
2:00 17 20 mph 1019mb 38f
1:00 21 23 mph 1018.6mb 37f
12:00 21 24 mph 1018.6mb 36f
11:00 22 24 mph 1018.7mb 36f
10:00 26 28 mph 1018.6mb 35f
9:00 23 25 mph 1018.2mb 35f
8:00 26 30 mph 1017.5mb 36f
7:00 30 32 mph 1016.4mb 35f
6:00 24 26 mph 1015.4mb 36f
5:00 22 24 mph 1014.4mb 36f
4:00 23 24 mph 1013.5mb 37f
3:00 20 22 mph 1012.4mb 38f
2:00 22 24 mph 1011.8mb 38f
1:00 23 24 mph 1011.2mb 39f
12:00 18 21 mph 1010.6mb 39f
dim. 02/19 11:00 22 24 mph 1010.1mb 40f
10:00 20 21 mph 1008.9mb 43f
9:00 22
mph
1008.2mb 44f
8:00 24 25 mph 1007.8mb 44f
7:00 18 21 mph 1007.1mb 43f
6:00 24 26 mph 1005.7mb 46f
5:00 21 23 mph 1004.5mb 44f
4:00 24 25 mph 1003.4mb 42f
3:00 20 21 mph 1002.5mb 43f
2:00 23 26 mph 1001.7mb 43f
1:00 20
mph
1001.4mb 43f
12:00 18 20 mph 1001.6mb 43f
11:00 18 20 mph 1002.4mb 42f
10:00 22 23 mph 1002.4mb 43f
9:00 21 23 mph 1002.3mb 43f
8:00 20 21 mph 1001.7mb 43f
7:00 21
mph
1001mb 43f
6:00 21 22 mph 1000.2mb 43f
5:00 18 20 mph 998.9mb 43f
4:00 20 22 mph 998.2mb 42f
3:00 21 23 mph 997.7mb 43f
2:00 23 24 mph 997.2mb 44f
1:00 21 22 mph 997.2mb 44f
12:00 24 25 mph 996.7mb 45f
sam. 02/18 11:00 28 30 mph 996.3mb 46f
10:00 29 32 mph 996.2mb 45f
9:00 31 34 mph 996.1mb 44f
8:00 31 33 mph 996.6mb 44f
7:00 29 32 mph 996.9mb 43f
6:00 25 28 mph 998mb 42f
5:00 23 24 mph 998.6mb 42f
4:00 22 24 mph 1000mb 41f
3:00 28 31 mph 1001.5mb 41f
2:00 22 23 mph 1001.6mb 39f
1:00 20 21 mph 1003.1mb 38f
12:00 20 22 mph 1005mb 38f
11:00 22 23 mph 1005.2mb 38f
10:00 18 20 mph 1006.5mb 38f
9:00 3
mph
1006.9mb 35f
8:00 5 6 mph 1007.5mb 33f
7:00 15 16 mph 1007.9mb 33f
6:00 16 17 mph 1007.1mb 33f
5:00 18 20 mph 1007.3mb 32f
4:00 18 21 mph 1007.7mb 31f
3:00 17 21 mph 1007.3mb 30f
2:00 18 22 mph 1006.9mb 30f
1:00 21 24 mph 1006.2mb 30f
12:00 26 28 mph 1004.9mb 31f
ven. 02/17 11:00 23 28 mph 1004.7mb 30f
10:00 24 28 mph 1004.1mb 31f
9:00 25 28 mph 1003.9mb 31f
8:00 32 36 mph 1002.8mb 32f
7:00 28 30 mph 1002.1mb 33f
6:00 26 30 mph 1001.4mb 34f
5:00 28 32 mph 1000.1mb 35f
4:00 28 30 mph 999.2mb 35f
3:00 26 30 mph 998.6mb 35f
2:00 34 39 mph 998.1mb 33f
1:00 30 33 mph 998.5mb 32f
12:00 25 29 mph 998.6mb 32f
11:00 24 26 mph 999.1mb 31f
10:00 24 28 mph 999mb 29f
9:00 29 32 mph 998.8mb 28f
8:00 26 29 mph 998.5mb 27f
7:00 32 36 mph 997.5mb 28f
6:00 33 37 mph 996.9mb 28f
5:00 33 38 mph 996.3mb 28f
4:00 34 40 mph 996.2mb 28f
3:00 37 41 mph 995.8mb 28f
2:00 30 34 mph 996mb 29f